Time;durP1;ratioP1;P1;durP2;ratioP2;P2;SDS_P1;SDS_P2;PMS_P1;PMS_P2;Temp;Humidity;BMP_temperature;BMP_pressure;BME280_temperature;BME280_humidity;BME280_pressure;Samples;Min_cycle;Max_cycle;Signal;HPM_P1;HPM_P2
2022/10/05 00:02:23;;;;;;;2.27;1.20;;;;;;;15.17;48.66;99878.84;4977162;28;20177;-87
2022/10/05 00:04:52;;;;;;;2.73;1.30;;;;;;;15.06;48.78;99891.00;4992319;28;20187;-87
2022/10/05 00:07:19;;;;;;;6.03;1.00;;;;;;;15.00;49.06;99880.78;4977278;28;20192;-87
2022/10/05 00:09:52;;;;;;;1.43;0.97;;;;;;;14.96;48.74;99882.78;4976905;28;20180;-87
2022/10/05 00:12:20;;;;;;;3.30;1.43;;;;;;;14.97;48.94;99883.59;4977238;28;20176;-88
2022/10/05 00:14:47;;;;;;;2.93;1.20;;;;;;;14.90;48.71;99882.25;4992009;28;20214;-88
2022/10/05 00:17:17;;;;;;;1.83;0.90;;;;;;;14.86;49.11;99888.69;4976831;28;20184;-88
2022/10/05 00:19:42;;;;;;;7.87;1.33;;;;;;;14.75;49.16;99884.84;4976771;28;20201;-88
2022/10/05 00:22:08;;;;;;;2.87;1.30;;;;;;;14.75;48.96;99887.47;4991988;28;20188;-87
2022/10/05 00:24:34;;;;;;;1.50;0.97;;;;;;;14.83;49.21;99886.22;4976687;28;20175;-88
2022/10/05 00:27:00;;;;;;;3.70;1.20;;;;;;;14.83;49.06;99892.34;4976639;28;20198;-87
2022/10/05 00:29:26;;;;;;;1.90;1.00;;;;;;;14.71;49.22;99885.97;4976530;28;20234;-87
2022/10/05 00:31:51;;;;;;;2.40;1.30;;;;;;;14.68;49.55;99898.47;4976828;28;20188;-87
2022/10/05 00:34:17;;;;;;;3.63;1.67;;;;;;;14.61;49.62;99892.72;4976721;28;20667;-87
2022/10/05 00:36:43;;;;;;;2.53;1.40;;;;;;;14.50;50.39;99894.25;4991719;28;20224;-87
2022/10/05 00:39:09;;;;;;;2.53;1.40;;;;;;;14.45;51.17;99896.31;4976469;28;20180;-88
2022/10/05 00:41:40;;;;;;;2.03;1.20;;;;;;;14.40;51.31;99895.72;4991693;28;20646;-88
2022/10/05 00:44:33;;;;;;;2.80;1.20;;;;;;;14.18;51.73;99894.22;4991602;28;20602;-88
2022/10/05 00:47:20;;;;;;;2.47;1.30;;;;;;;14.02;51.85;99895.16;4991631;28;20180;-88
2022/10/05 00:50:21;;;;;;;2.67;1.50;;;;;;;14.04;51.74;99890.66;4976299;28;20172;-89
2022/10/05 00:53:33;;;;;;;1.97;1.17;;;;;;;14.04;51.71;99890.66;4972908;28;20206;-87
2022/10/05 00:56:15;;;;;;;2.00;1.07;;;;;;;13.97;51.51;99890.13;4966336;28;20206;-87
2022/10/05 00:58:55;;;;;;;6.57;1.10;;;;;;;13.87;51.30;99888.06;4976641;28;20176;-87
2022/10/05 01:01:35;;;;;;;2.00;1.17;;;;;;;13.83;51.30;99892.69;4976317;28;20591;-87
2022/10/05 01:04:19;;;;;;;1.47;0.80;;;;;;;13.78;51.40;99893.84;4976287;28;20163;-87
2022/10/05 01:07:06;;;;;;;2.17;1.30;;;;;;;13.75;51.57;99900.16;4991176;28;20611;-88
2022/10/05 01:09:48;;;;;;;2.23;1.03;;;;;;;13.74;51.18;99908.97;4976145;28;20263;-87
2022/10/05 01:12:38;;;;;;;2.67;1.43;;;;;;;13.64;51.31;99907.75;4976396;28;20167;-88
2022/10/05 01:15:26;;;;;;;1.80;1.00;;;;;;;13.52;51.29;99911.03;4990938;28;20208;-88
2022/10/05 01:18:15;;;;;;;3.10;0.93;;;;;;;13.44;51.89;99914.06;4976012;28;20175;-88
2022/10/05 01:21:11;;;;;;;1.90;1.00;;;;;;;13.50;51.48;99916.38;4975820;28;20618;-88
2022/10/05 01:24:11;;;;;;;3.83;1.33;;;;;;;13.48;51.81;99920.03;4975925;28;20623;-88
2022/10/05 01:26:49;;;;;;;1.73;0.90;;;;;;;13.28;52.45;99918.44;4976173;28;20171;-88
2022/10/05 01:29:33;;;;;;;1.80;1.00;;;;;;;13.25;52.62;99917.72;4975919;28;20594;-87
2022/10/05 01:32:13;;;;;;;1.83;1.10;;;;;;;13.22;53.17;99913.47;4975810;28;20177;-87
2022/10/05 01:34:43;;;;;;;2.87;1.40;;;;;;;13.22;53.55;99920.50;4975892;28;20193;-87
2022/10/05 01:38:03;;;;;;;6.03;1.60;;;;;;;13.19;53.45;99918.03;4975628;28;20180;-87
2022/10/05 01:40:49;;;;;;;3.90;1.43;;;;;;;13.07;53.58;99922.16;4951478;28;20197;-87
2022/10/05 01:43:15;;;;;;;2.00;1.30;;;;;;;13.08;54.02;99925.59;4990538;28;20243;-87
2022/10/05 01:45:55;;;;;;;1.97;1.13;;;;;;;13.09;53.96;99927.31;4990447;28;20193;-87
2022/10/05 01:48:45;;;;;;;2.00;1.43;;;;;;;13.10;53.95;99921.13;4975195;28;20177;-87
2022/10/05 01:51:16;;;;;;;3.47;1.37;;;;;;;13.13;53.38;99916.56;4975605;28;20174;-88
2022/10/05 01:54:13;;;;;;;2.83;1.53;;;;;;;13.19;53.66;99915.41;4975262;28;20256;-87
2022/10/05 01:57:01;;;;;;;2.27;1.20;;;;;;;13.06;54.02;99919.53;4923850;28;20637;-87
2022/10/05 01:59:45;;;;;;;4.23;1.50;;;;;;;12.95;54.32;99918.31;4990149;28;20577;-87
2022/10/05 02:02:15;;;;;;;2.87;1.30;;;;;;;12.91;54.98;99919.41;4974009;28;20646;-87
2022/10/05 02:04:47;;;;;;;2.60;1.17;;;;;;;12.85;55.07;99919.69;4974509;28;20173;-87
2022/10/05 02:07:22;;;;;;;2.60;1.27;;;;;;;12.85;55.43;99927.59;4990114;28;20194;-87
2022/10/05 02:09:54;;;;;;;2.77;1.57;;;;;;;12.90;55.34;99928.22;4990070;28;20195;-87
2022/10/05 02:12:23;;;;;;;3.67;1.30;;;;;;;12.86;54.96;99933.69;4974781;28;20179;-87
2022/10/05 02:14:54;;;;;;;2.13;1.30;;;;;;;12.85;55.52;99940.75;4989963;28;20323;-88
2022/10/05 02:17:31;;;;;;;2.53;1.33;;;;;;;12.88;55.42;99942.38;4989965;28;20235;-87
2022/10/05 02:20:04;;;;;;;2.43;1.40;;;;;;;12.86;55.30;99939.81;4974924;28;20219;-87
2022/10/05 02:22:42;;;;;;;3.70;1.30;;;;;;;12.81;55.48;99948.88;4989836;28;20607;-88
2022/10/05 02:25:13;;;;;;;2.80;1.20;;;;;;;12.80;55.94;99945.38;4974842;28;20170;-88
2022/10/05 02:27:46;;;;;;;3.27;1.30;;;;;;;12.85;55.60;99942.50;4975122;28;20174;-88
2022/10/05 02:30:13;;;;;;;3.30;1.60;;;;;;;12.87;55.40;99946.78;4974355;28;20273;-88
2022/10/05 02:32:57;;;;;;;2.97;1.53;;;;;;;12.81;55.74;99951.50;4974713;28;20185;-88
2022/10/05 02:35:22;;;;;;;6.00;2.30;;;;;;;12.82;56.17;99947.91;4974920;28;20192;-88
2022/10/05 02:38:18;;;;;;;5.00;1.97;;;;;;;12.91;55.83;99952.75;4989617;28;20186;-88
2022/10/05 02:40:58;;;;;;;3.83;1.63;;;;;;;12.98;55.81;99961.19;4974644;28;20231;-88
2022/10/05 02:43:54;;;;;;;2.43;1.43;;;;;;;13.00;56.07;99961.97;4974850;28;20168;-88
2022/10/05 02:46:36;;;;;;;3.63;1.90;;;;;;;13.05;55.65;99962.59;4974537;28;20240;-87
2022/10/05 02:49:21;;;;;;;3.47;1.50;;;;;;;13.06;56.03;99964.28;4989583;28;20176;-88
2022/10/05 02:52:11;;;;;;;3.90;1.63;;;;;;;13.05;56.47;99963.44;4974808;28;20583;-87
2022/10/05 02:54:53;;;;;;;2.73;1.60;;;;;;;12.96;57.10;99966.53;4974189;28;20224;-88
2022/10/05 02:57:21;;;;;;;2.97;1.57;;;;;;;12.96;57.21;99958.63;4974762;28;20161;-88
2022/10/05 03:00:27;;;;;;;4.30;1.97;;;;;;;12.93;57.12;99959.63;4974171;28;20273;-88
2022/10/05 03:02:58;;;;;;;3.47;1.77;;;;;;;12.94;56.61;99957.88;4971041;28;20227;-88
2022/10/05 03:05:34;;;;;;;3.47;1.63;;;;;;;12.76;56.35;99964.84;4974149;28;20165;-88
2022/10/05 03:08:28;;;;;;;3.27;1.70;;;;;;;12.68;56.01;99961.72;4974425;28;20239;-88
2022/10/05 03:11:11;;;;;;;2.83;1.23;;;;;;;12.62;56.35;99962.06;4965986;28;20192;-88
2022/10/05 03:13:42;;;;;;;5.67;1.87;;;;;;;12.60;56.06;99969.16;4974270;28;20170;-88
2022/10/05 03:16:29;;;;;;;3.30;1.47;;;;;;;12.59;56.56;99972.72;4975268;28;20189;-87
2022/10/05 03:19:26;;;;;;;4.40;2.00;;;;;;;12.45;57.14;99971.66;4978265;28;20179;-88
2022/10/05 03:22:00;;;;;;;2.07;1.30;;;;;;;12.42;57.84;99964.75;4993173;28;20186;-88
2022/10/05 03:24:31;;;;;;;3.70;1.73;;;;;;;12.42;57.81;99961.28;4977825;28;20183;-88
2022/10/05 03:27:23;;;;;;;3.40;1.70;;;;;;;12.40;57.91;99971.84;4977797;28;20179;-88
2022/10/05 03:30:02;;;;;;;2.27;1.63;;;;;;;12.38;58.38;99973.72;4977845;28;20192;-88
2022/10/05 03:32:42;;;;;;;3.07;2.07;;;;;;;12.34;58.26;99982.69;4992963;28;20173;-88
2022/10/05 03:35:07;;;;;;;2.80;1.80;;;;;;;12.34;58.04;99980.88;4978178;28;20192;-88
2022/10/05 03:37:58;;;;;;;3.87;1.70;;;;;;;12.28;57.58;99982.97;4977787;28;20188;-88
2022/10/05 03:40:33;;;;;;;2.33;1.40;;;;;;;12.22;57.50;99993.75;4958985;28;20192;-89
2022/10/05 03:43:16;;;;;;;3.03;1.67;;;;;;;12.20;56.62;99988.56;4977808;28;20196;-88
2022/10/05 03:45:59;;;;;;;3.37;1.80;;;;;;;12.20;56.34;99990.34;4977731;28;20495;-88
2022/10/05 03:48:30;;;;;;;3.90;1.77;;;;;;;12.13;56.42;100007.31;4992749;28;20223;-88
2022/10/05 03:51:17;;;;;;;2.47;1.27;;;;;;;12.08;55.90;100007.50;4992657;28;20180;-88
2022/10/05 03:53:48;;;;;;;4.07;2.43;;;;;;;12.00;55.43;100003.53;4977756;28;20218;-88
2022/10/05 03:56:30;;;;;;;4.70;1.70;;;;;;;11.99;55.12;100001.81;4976342;28;20549;-88
2022/10/05 03:59:10;;;;;;;2.67;1.27;;;;;;;11.97;55.12;99999.28;4977216;28;20173;-87
2022/10/05 04:01:47;;;;;;;2.80;1.40;;;;;;;11.90;55.55;100007.47;4977716;28;20595;-88
2022/10/05 04:04:21;;;;;;;4.70;2.10;;;;;;;11.89;55.25;100004.00;4977400;28;20195;-88
2022/10/05 04:06:49;;;;;;;6.57;1.37;;;;;;;11.91;55.07;100011.81;4976152;28;20266;-87
2022/10/05 04:09:38;;;;;;;3.57;2.10;;;;;;;11.82;57.66;100020.09;4976988;28;20184;-87
2022/10/05 04:12:29;;;;;;;4.90;2.03;;;;;;;11.78;61.05;100023.75;4992260;28;20176;-89
2022/10/05 04:15:19;;;;;;;4.53;2.33;;;;;;;11.80;62.45;100035.91;4976865;28;20592;-88
2022/10/05 04:18:02;;;;;;;4.00;2.03;;;;;;;11.96;62.40;100033.47;4992200;28;20197;-88
2022/10/05 04:20:39;;;;;;;3.20;1.80;;;;;;;12.09;62.94;100035.50;4992087;28;20187;-88
2022/10/05 04:23:29;;;;;;;3.47;1.70;;;;;;;12.21;62.51;100034.13;4977336;28;20168;-88
2022/10/05 04:26:01;;;;;;;3.77;1.93;;;;;;;12.28;62.53;100032.91;4976721;28;20172;-88
2022/10/05 04:28:44;;;;;;;4.50;1.80;;;;;;;12.33;61.71;100030.91;4976676;28;20217;-87
2022/10/05 04:31:26;;;;;;;4.23;2.13;;;;;;;12.34;60.08;100033.47;4991787;28;20654;-88
2022/10/05 04:34:07;;;;;;;11.30;2.43;;;;;;;12.34;58.71;100036.09;4976537;28;20196;-88
2022/10/05 04:36:43;;;;;;;3.20;2.00;;;;;;;12.29;57.50;100034.59;4991779;28;20169;-88
2022/10/05 04:39:27;;;;;;;4.80;2.43;;;;;;;12.15;60.23;100044.88;4976798;28;20263;-88
2022/10/05 04:42:26;;;;;;;4.43;2.30;;;;;;;12.21;61.60;100040.19;4976708;28;20169;-88
2022/10/05 04:45:08;;;;;;;4.77;2.37;;;;;;;12.21;61.14;100049.88;4976934;28;20161;-88
2022/10/05 04:47:50;;;;;;;4.87;2.20;;;;;;;12.25;61.41;100059.31;4976898;28;20168;-88
2022/10/05 04:50:18;;;;;;;3.70;2.53;;;;;;;12.34;61.80;100066.81;4976330;28;20172;-88
2022/10/05 04:53:08;;;;;;;7.27;2.33;;;;;;;12.35;62.22;100063.25;4991490;28;20189;-88
2022/10/05 04:55:48;;;;;;;4.10;2.50;;;;;;;12.42;62.56;100069.91;4976447;28;20196;-89
2022/10/05 04:58:35;;;;;;;7.87;2.80;;;;;;;12.58;62.29;100073.56;4991399;28;20192;-88
2022/10/05 05:01:22;;;;;;;4.50;2.03;;;;;;;12.56;62.72;100070.16;4976346;28;20181;-89
2022/10/05 05:04:21;;;;;;;2.93;1.70;;;;;;;12.73;62.20;100077.28;4991362;28;20176;-88
2022/10/05 05:06:55;;;;;;;6.77;1.97;;;;;;;12.83;61.55;100076.78;4976300;28;20227;-89
2022/10/05 05:09:36;;;;;;;6.60;2.40;;;;;;;12.89;60.75;100075.66;4991219;28;20187;-88
2022/10/05 05:12:10;;;;;;;8.30;2.43;;;;;;;13.03;60.92;100082.88;4975924;28;20181;-89
2022/10/05 05:15:08;;;;;;;5.33;2.40;;;;;;;13.14;60.53;100078.84;4975849;28;20274;-88
2022/10/05 05:18:06;;;;;;;3.07;2.10;;;;;;;13.24;60.29;100084.50;4991104;28;20268;-88
2022/10/05 05:20:56;;;;;;;3.60;1.97;;;;;;;13.42;59.65;100081.84;4972805;28;20196;-88
2022/10/05 05:23:47;;;;;;;3.37;1.80;;;;;;;13.74;58.69;100082.88;4990895;28;20588;-88
2022/10/05 05:26:50;;;;;;;4.20;2.10;;;;;;;13.99;58.14;100091.22;4990872;28;20181;-88
2022/10/05 05:29:34;;;;;;;3.67;2.00;;;;;;;14.13;57.16;100088.75;4979540;28;20214;-87
2022/10/05 05:32:19;;;;;;;5.90;2.27;;;;;;;14.34;56.56;100088.56;4958678;28;20226;-87
2022/10/05 05:34:57;;;;;;;3.93;2.10;;;;;;;14.46;56.44;100094.09;4956350;28;20267;-86
2022/10/05 05:37:41;;;;;;;3.47;1.83;;;;;;;14.65;55.92;100102.69;4956439;28;20207;-88
2022/10/05 05:40:17;;;;;;;2.07;1.50;;;;;;;14.76;55.16;100099.47;4954499;28;20173;-88
2022/10/05 05:42:42;;;;;;;7.10;2.07;;;;;;;14.83;55.08;100092.94;4956285;28;20192;-86
2022/10/05 05:45:27;;;;;;;4.10;2.00;;;;;;;14.93;55.01;100088.88;4956009;28;20208;-87
2022/10/05 05:47:53;;;;;;;2.93;1.70;;;;;;;15.07;54.44;100091.56;4957498;28;20176;-87
2022/10/05 05:50:19;;;;;;;5.87;1.83;;;;;;;14.97;54.50;100094.81;4965825;28;20180;-88
2022/10/05 05:52:48;;;;;;;5.93;2.10;;;;;;;14.85;55.19;100100.78;4962902;28;20566;-88
2022/10/05 05:55:26;;;;;;;3.47;1.60;;;;;;;14.96;54.53;100101.91;4963598;28;20189;-86
2022/10/05 05:58:15;;;;;;;3.23;1.73;;;;;;;15.06;54.18;100108.38;4964299;28;20692;-87
2022/10/05 06:00:58;;;;;;;6.23;1.73;;;;;;;15.34;53.92;100112.94;4976009;28;20235;-86
2022/10/05 06:03:38;;;;;;;3.33;1.53;;;;;;;15.76;52.67;100114.97;4956871;28;20169;-86
2022/10/05 06:06:08;;;;;;;5.10;2.13;;;;;;;16.66;49.22;100099.81;4973976;28;20223;-86
2022/10/05 06:08:45;;;;;;;3.67;1.60;;;;;;;17.36;47.39;100105.00;4975104;28;20168;-86
2022/10/05 06:11:22;;;;;;;3.90;2.10;;;;;;;18.16;46.39;100106.75;4973873;28;20191;-89
2022/10/05 06:13:50;;;;;;;2.87;1.83;;;;;;;18.61;44.33;100110.69;4973768;28;20632;-88
2022/10/05 06:16:22;;;;;;;3.03;2.00;;;;;;;18.99;43.23;100104.38;4973772;28;20258;-89
2022/10/05 06:18:55;;;;;;;2.57;1.37;;;;;;;19.33;42.50;100100.13;4973731;28;20232;-87
2022/10/05 06:21:35;;;;;;;4.33;1.63;;;;;;;19.46;42.01;100110.72;4974979;28;20165;-88
2022/10/05 06:24:21;;;;;;;2.77;1.23;;;;;;;19.73;41.66;100103.38;4974913;28;20165;-88
2022/10/05 06:27:02;;;;;;;2.67;1.50;;;;;;;20.03;40.82;100110.84;4974457;28;20187;-87
2022/10/05 06:30:13;;;;;;;2.53;1.40;;;;;;;20.02;40.46;100117.16;4974487;28;20235;-86
2022/10/05 06:33:07;;;;;;;2.27;1.30;;;;;;;20.58;39.85;100108.31;4974821;28;20165;-86
2022/10/05 06:35:56;;;;;;;2.97;1.43;;;;;;;21.03;38.99;100113.63;4973448;28;20669;-86
2022/10/05 06:38:34;;;;;;;1.93;1.03;;;;;;;21.25;39.00;100119.81;4973646;28;20191;-88
2022/10/05 06:40:59;;;;;;;1.83;1.00;;;;;;;21.18;37.90;100123.94;4974428;28;20176;-87
2022/10/05 06:43:24;;;;;;;3.30;1.30;;;;;;;21.22;38.16;100121.88;4974345;28;20654;-87
2022/10/05 06:45:58;;;;;;;2.43;1.43;;;;;;;21.37;38.19;100124.16;4973360;28;20227;-87
2022/10/05 06:48:40;;;;;;;2.40;1.23;;;;;;;21.27;38.51;100123.22;4973370;28;20179;-87
2022/10/05 06:51:22;;;;;;;1.83;1.03;;;;;;;21.36;37.76;100138.47;4974230;28;20167;-88
2022/10/05 06:54:02;;;;;;;1.67;1.07;;;;;;;21.34;37.27;100132.41;4973268;28;20170;-87
2022/10/05 06:56:46;;;;;;;2.57;1.20;;;;;;;21.17;37.44;100138.22;4973316;28;20196;-88
2022/10/05 06:59:42;;;;;;;2.23;1.20;;;;;;;21.47;37.05;100128.72;4974517;28;20616;-89
2022/10/05 07:02:21;;;;;;;3.97;1.20;;;;;;;21.36;37.01;100132.28;4973275;28;20255;-87
2022/10/05 07:04:46;;;;;;;4.40;1.43;;;;;;;21.23;37.58;100139.56;4974711;28;20260;-86
2022/10/05 07:07:33;;;;;;;7.83;1.20;;;;;;;21.31;37.91;100140.66;4974680;28;20262;-86
2022/10/05 07:10:23;;;;;;;2.30;1.10;;;;;;;21.47;36.87;100140.25;4957380;28;20279;-90
2022/10/05 07:13:06;;;;;;;4.00;1.20;;;;;;;21.16;37.03;100147.22;4955135;28;20181;-88
2022/10/05 07:15:41;;;;;;;5.23;1.70;;;;;;;20.92;37.68;100153.63;4953785;28;20617;-88
2022/10/05 07:18:18;;;;;;;3.40;1.00;;;;;;;20.72;38.27;100150.72;4954352;28;20169;-87
2022/10/05 07:20:54;;;;;;;4.27;1.20;;;;;;;20.65;39.11;100161.97;4955030;28;20162;-88
2022/10/05 07:23:38;;;;;;;3.27;1.37;;;;;;;20.73;38.43;100159.53;4953789;28;20188;-88
2022/10/05 07:26:16;;;;;;;3.07;1.53;;;;;;;20.58;39.02;100171.41;4955006;28;20166;-86
2022/10/05 07:29:11;;;;;;;6.53;1.73;;;;;;;20.53;38.96;100165.56;4955244;28;20165;-88
2022/10/05 07:32:05;;;;;;;3.17;1.20;;;;;;;20.42;38.69;100155.75;4962200;28;20242;-87
2022/10/05 07:34:44;;;;;;;1.47;1.07;;;;;;;20.42;39.38;100163.75;4978725;28;20576;-86
2022/10/05 07:40:25;;;;;;;2.07;1.30;;;;;;;20.74;39.50;100163.91;4978897;28;20191;-88
2022/10/05 07:42:55;;;;;;;2.03;1.10;;;;;;;20.58;39.11;100160.75;4976982;28;20184;-87
2022/10/05 07:45:45;;;;;;;2.43;1.30;;;;;;;20.54;39.28;100164.63;4977624;28;20232;-88
2022/10/05 07:48:11;;;;;;;4.23;1.40;;;;;;;20.46;39.89;100167.03;4981475;28;20184;-87
2022/10/05 07:51:08;;;;;;;4.77;1.00;;;;;;;20.62;39.18;100162.22;4978162;28;20493;-87
2022/10/05 07:53:41;;;;;;;4.43;1.53;;;;;;;20.64;39.42;100161.13;4962652;28;20251;-86
2022/10/05 07:56:21;;;;;;;3.33;1.10;;;;;;;20.70;38.95;100162.47;4971097;28;20247;-88
2022/10/05 07:58:54;;;;;;;1.93;1.00;;;;;;;20.87;39.32;100166.47;4971996;28;20177;-87
2022/10/05 08:01:40;;;;;;;3.17;0.87;;;;;;;21.02;38.78;100170.56;4982484;28;20238;-88
2022/10/05 08:04:12;;;;;;;4.00;1.43;;;;;;;21.03;38.08;100167.81;4976915;28;20176;-88
2022/10/05 08:06:58;;;;;;;4.67;1.17;;;;;;;21.05;38.22;100165.84;4975597;28;20179;-87
2022/10/05 08:09:35;;;;;;;2.33;1.10;;;;;;;21.24;38.66;100163.47;4980038;28;20180;-88
2022/10/05 08:12:27;;;;;;;2.77;0.97;;;;;;;21.37;38.22;100164.19;4965759;28;20709;-88
2022/10/05 08:14:58;;;;;;;2.47;0.80;;;;;;;21.48;36.85;100162.44;4974715;28;20728;-87
2022/10/05 08:17:39;;;;;;;4.47;1.17;;;;;;;21.56;37.29;100160.88;4975192;28;20586;-87
2022/10/05 08:20:23;;;;;;;3.53;0.93;;;;;;;21.56;37.23;100162.69;4980306;28;20170;-88
2022/10/05 08:23:13;;;;;;;3.73;1.10;;;;;;;21.84;37.58;100162.09;4985581;28;20179;-88
2022/10/05 08:25:50;;;;;;;1.83;0.90;;;;;;;21.97;36.26;100161.00;4991808;28;20172;-87
2022/10/05 08:29:03;;;;;;;1.80;0.90;;;;;;;22.26;35.47;100160.38;4989853;28;20173;-89
2022/10/05 08:31:36;;;;;;;2.77;0.80;;;;;;;22.47;35.04;100167.41;4972119;28;20212;-90
2022/10/05 08:34:26;;;;;;;1.77;0.70;;;;;;;22.57;34.54;100162.97;4977771;28;20293;-87
2022/10/05 08:37:19;;;;;;;1.67;0.70;;;;;;;22.89;34.65;100159.38;4975870;28;20188;-88
2022/10/05 08:39:59;;;;;;;1.73;0.83;;;;;;;22.91;33.79;100162.75;4976691;28;20179;-87
2022/10/05 08:42:54;;;;;;;1.33;0.60;;;;;;;23.07;33.86;100165.78;4974105;28;20601;-88
2022/10/05 08:45:25;;;;;;;3.23;1.00;;;;;;;23.06;33.32;100156.06;4981726;28;20168;-88
2022/10/05 08:47:57;;;;;;;1.90;0.70;;;;;;;22.99;33.78;100157.56;4975009;28;20192;-88
2022/10/05 08:51:27;;;;;;;2.67;0.70;;;;;;;23.18;33.90;100161.19;4975829;28;20177;-90
2022/10/05 08:54:34;;;;;;;1.67;0.90;;;;;;;23.27;33.76;100164.03;4937598;28;20282;-88
2022/10/05 08:57:24;;;;;;;1.60;1.00;;;;;;;23.20;32.93;100163.72;4970885;28;20192;-89
2022/10/05 09:00:12;;;;;;;1.90;0.90;;;;;;;23.41;33.45;100156.50;4975897;28;20168;-88
2022/10/05 09:03:08;;;;;;;3.47;0.70;;;;;;;23.45;32.71;100151.72;4975169;28;20176;-88
2022/10/05 09:05:42;;;;;;;1.00;0.60;;;;;;;23.43;33.01;100162.53;4975773;28;20180;-88
2022/10/05 09:08:45;;;;;;;0.83;0.50;;;;;;;23.53;32.79;100159.91;4974800;28;20183;-88
2022/10/05 09:11:19;;;;;;;1.57;0.67;;;;;;;23.68;32.77;100154.00;4976504;28;20184;-89
2022/10/05 09:14:03;;;;;;;2.37;0.80;;;;;;;23.83;31.82;100152.63;4975077;28;20592;-88
2022/10/05 09:17:01;;;;;;;2.67;0.60;;;;;;;23.83;32.23;100144.59;4974936;28;20172;-87
2022/10/05 09:19:45;;;;;;;1.70;0.60;;;;;;;23.86;32.71;100140.78;4976297;28;20197;-88
2022/10/05 09:22:53;;;;;;;1.90;0.70;;;;;;;24.01;31.99;100138.50;4975961;28;20188;-87
2022/10/05 09:25:26;;;;;;;1.10;0.60;;;;;;;24.11;31.51;100134.03;4974388;28;20200;-88
2022/10/05 09:28:03;;;;;;;1.50;0.60;;;;;;;24.37;31.56;100135.16;4976474;28;20172;-87
2022/10/05 09:30:56;;;;;;;0.77;0.40;;;;;;;24.36;32.47;100133.44;4975696;28;20228;-88
2022/10/05 09:33:51;;;;;;;1.10;0.50;;;;;;;24.41;31.27;100134.69;4975642;28;20645;-89
2022/10/05 09:36:45;;;;;;;2.47;0.80;;;;;;;24.54;31.54;100137.06;4974458;28;20177;-88
2022/10/05 09:39:33;;;;;;;1.13;0.60;;;;;;;24.59;31.87;100137.47;4974263;28;20645;-88
2022/10/05 09:42:27;;;;;;;0.80;0.53;;;;;;;24.77;29.98;100132.19;4973994;28;20193;-88
2022/10/05 09:45:24;;;;;;;1.43;0.47;;;;;;;24.71;30.44;100127.44;4974297;28;20637;-88
2022/10/05 09:48:08;;;;;;;0.90;0.50;;;;;;;24.93;30.45;100133.28;4974685;28;20208;-89
2022/10/05 09:50:51;;;;;;;0.80;0.50;;;;;;;25.25;29.51;100130.19;4973386;28;20574;-88
2022/10/05 09:53:39;;;;;;;1.63;0.60;;;;;;;25.40;29.98;100127.81;4965386;28;20275;-88
2022/10/05 09:56:08;;;;;;;1.40;0.53;;;;;;;25.41;29.01;100127.69;4974384;28;20239;-88
2022/10/05 09:58:39;;;;;;;1.30;0.63;;;;;;;25.57;29.50;100129.72;4975039;28;20183;-88
2022/10/05 10:01:05;;;;;;;2.43;0.50;;;;;;;25.83;28.77;100127.97;4975354;28;20168;-88
2022/10/05 10:04:00;;;;;;;1.17;0.70;;;;;;;26.21;28.90;100134.88;4975243;28;20180;-88
2022/10/05 10:06:55;;;;;;;1.13;0.50;;;;;;;26.35;28.74;100133.47;4974883;28;20204;-88
2022/10/05 10:09:33;;;;;;;1.17;0.57;;;;;;;26.18;27.86;100132.50;4974142;28;20176;-87
2022/10/05 10:12:12;;;;;;;2.67;0.47;;;;;;;26.32;28.18;100128.41;4974467;28;20165;-88
2022/10/05 10:15:19;;;;;;;1.33;0.60;;;;;;;26.42;27.76;100121.09;4973596;28;20283;-87
2022/10/05 10:17:47;;;;;;;2.40;0.67;;;;;;;26.23;27.80;100132.91;4966596;28;20235;-88
2022/10/05 10:20:55;;;;;;;2.23;0.33;;;;;;;26.36;28.08;100127.09;4974682;28;20239;-88
2022/10/05 10:23:28;;;;;;;1.37;0.40;;;;;;;26.68;27.64;100121.91;4973745;28;20511;-88
2022/10/05 10:26:15;;;;;;;0.37;0.30;;;;;;;26.63;26.96;100127.78;4974309;28;20638;-89
2022/10/05 10:29:33;;;;;;;1.43;0.40;;;;;;;26.76;26.59;100117.44;4972612;28;20185;-88
2022/10/05 10:32:17;;;;;;;0.70;0.30;;;;;;;26.74;27.38;100118.59;4963525;28;20206;-87
2022/10/05 10:35:04;;;;;;;1.77;0.50;;;;;;;26.62;27.41;100117.19;4972636;28;20208;-88
2022/10/05 10:37:48;;;;;;;0.87;0.50;;;;;;;26.41;27.43;100122.09;4971376;28;20184;-89
2022/10/05 10:40:18;;;;;;;2.23;0.83;;;;;;;26.39;28.19;100113.34;4971376;28;20529;-88
2022/10/05 10:43:06;;;;;;;2.20;0.40;;;;;;;26.53;28.07;100110.91;4973121;28;20169;-88
2022/10/05 10:45:55;;;;;;;1.67;0.57;;;;;;;26.77;27.00;100118.31;4974371;28;20198;-88
2022/10/05 10:48:39;;;;;;;2.40;0.70;;;;;;;26.62;27.11;100109.97;4974621;28;20587;-88
2022/10/05 10:51:10;;;;;;;0.90;0.40;;;;;;;26.70;27.34;100104.63;4974880;28;20179;-87
2022/10/05 10:53:39;;;;;;;2.03;0.60;;;;;;;26.72;27.49;100105.31;4973375;28;20177;-87
2022/10/05 10:56:28;;;;;;;2.83;0.60;;;;;;;26.36;26.97;100113.66;4974460;28;20207;-87
2022/10/05 10:59:30;;;;;;;8.67;0.50;;;;;;;26.39;27.82;100106.09;4974555;28;20324;-88
2022/10/05 11:02:26;;;;;;;0.87;0.40;;;;;;;26.81;27.12;100098.16;4973277;28;20190;-88
2022/10/05 11:05:01;;;;;;;2.10;0.73;;;;;;;26.89;27.31;100100.06;4973222;28;20203;-88
2022/10/05 11:08:04;;;;;;;2.57;0.43;;;;;;;26.76;26.53;100092.38;4974164;28;20180;-88
2022/10/05 11:10:49;;;;;;;0.98;0.40;;;;;;;26.99;27.33;100090.81;4973506;28;20190;-89
2022/10/05 11:13:51;;;;;;;0.88;0.50;;;;;;;27.19;26.58;100081.50;4973162;28;20215;-88
2022/10/05 11:16:47;;;;;;;0.75;0.40;;;;;;;26.71;26.50;100084.78;4974084;28;20278;-90
2022/10/05 11:19:31;;;;;;;0.40;0.30;;;;;;;27.00;26.79;100081.75;4974389;28;20171;-89
2022/10/05 11:22:14;;;;;;;2.53;0.63;;;;;;;27.32;26.37;100076.50;4974621;28;20319;-89
2022/10/05 11:25:01;;;;;;;0.55;0.30;;;;;;;27.36;25.98;100067.06;4974086;28;20168;-89
2022/10/05 11:27:36;;;;;;;0.60;0.28;;;;;;;27.22;25.69;100070.41;4973068;28;20188;-88
2022/10/05 11:30:37;;;;;;;0.97;0.30;;;;;;;27.34;25.75;100074.47;4974002;28;20261;-89
2022/10/05 11:33:41;;;;;;;1.58;0.40;;;;;;;27.16;25.91;100071.06;4974747;28;20191;-89
2022/10/05 11:36:44;;;;;;;0.50;0.22;;;;;;;27.33;26.19;100078.16;4972863;28;20219;-89
2022/10/05 11:39:38;;;;;;;1.10;0.38;;;;;;;27.49;25.66;100069.28;4976683;28;20262;-89
2022/10/05 11:42:03;;;;;;;0.82;0.30;;;;;;;27.60;25.39;100068.13;4976656;28;20177;-89
2022/10/05 11:44:28;;;;;;;0.30;0.20;;;;;;;27.56;25.51;100061.41;4977833;28;20195;-90
2022/10/05 11:47:18;;;;;;;0.90;0.50;;;;;;;27.44;25.05;100066.25;4977522;28;20259;-89
2022/10/05 11:50:05;;;;;;;0.65;0.45;;;;;;;27.30;25.47;100056.13;4977964;28;20625;-89
2022/10/05 11:52:37;;;;;;;0.73;0.30;;;;;;;27.36;25.22;100061.69;4976471;28;20180;-88
2022/10/05 11:55:56;;;;;;;0.73;0.32;;;;;;;27.44;25.47;100053.66;4977593;28;20271;-89
2022/10/05 11:58:45;;;;;;;0.50;0.28;;;;;;;27.58;25.24;100054.00;4995102;28;20277;-88
2022/10/05 12:01:18;;;;;;;0.93;0.38;;;;;;;27.58;25.19;100043.22;4992673;28;20676;-88
2022/10/05 12:04:30;;;;;;;0.88;0.32;;;;;;;27.76;25.32;100043.91;4977192;28;20277;-88
2022/10/05 12:07:21;;;;;;;0.90;0.35;;;;;;;27.88;24.74;100035.31;4982229;28;20200;-87
2022/10/05 12:10:23;;;;;;;1.25;0.40;;;;;;;27.61;25.17;100038.34;4976139;28;20184;-88
2022/10/05 12:13:37;;;;;;;0.85;0.30;;;;;;;27.79;24.36;100035.50;4976056;28;20220;-87
2022/10/05 12:20:00;;;;;;;0.45;0.22;;;;;;;27.92;23.48;100019.66;4977788;28;20176;-87
2022/10/05 12:22:54;;;;;;;2.22;0.30;;;;;;;27.84;23.70;100020.50;4976507;28;20191;-88
2022/10/05 12:25:32;;;;;;;1.05;0.22;;;;;;;27.96;24.10;100015.63;4975963;28;20184;-88
2022/10/05 12:28:18;;;;;;;0.85;0.30;;;;;;;28.08;24.25;100013.44;4976775;28;20165;-88
2022/10/05 12:31:09;;;;;;;1.00;0.40;;;;;;;28.07;23.89;100007.19;4975660;28;20231;-87
2022/10/05 12:33:44;;;;;;;0.82;0.30;;;;;;;28.27;24.04;100005.81;4975668;28;20185;-88
2022/10/05 12:36:34;;;;;;;0.40;0.30;;;;;;;28.55;23.36;99995.44;4975911;28;20231;-88
2022/10/05 12:39:24;;;;;;;0.47;0.20;;;;;;;28.69;23.80;100000.16;4977193;28;20196;-88
2022/10/05 12:41:56;;;;;;;0.40;0.20;;;;;;;28.72;23.81;99996.25;4976851;28;20227;-87
2022/10/05 12:44:43;;;;;;;0.52;0.20;;;;;;;28.60;23.91;99996.59;4976784;28;20313;-88
2022/10/05 12:47:24;;;;;;;0.73;0.35;;;;;;;28.14;23.69;99997.44;4976747;28;20302;-89